createdAt,value
2019-03-23T00:00:45.811Z,102288.30
2019-03-23T00:03:15.795Z,102289.91
2019-03-23T00:05:45.773Z,102285.37
2019-03-23T00:08:15.762Z,102291.53
2019-03-23T00:10:45.764Z,102290.59
2019-03-23T00:13:15.732Z,102292.52
2019-03-23T00:15:45.746Z,102291.36
2019-03-23T00:18:15.729Z,102291.36
2019-03-23T00:20:45.752Z,102283.05
2019-03-23T00:23:15.675Z,102290.50
2019-03-23T00:25:45.640Z,102284.30
2019-03-23T00:28:15.625Z,102292.33
2019-03-23T00:30:45.577Z,102301.81
2019-03-23T00:33:15.568Z,102297.05
2019-03-23T00:35:45.535Z,102293.30
2019-03-23T00:38:15.534Z,102296.88
2019-03-23T00:40:45.513Z,102301.49
2019-03-23T00:43:15.473Z,102300.36
2019-03-23T00:45:45.464Z,102295.33
2019-03-23T00:48:15.446Z,102301.11
2019-03-23T00:50:45.439Z,102302.56
2019-03-23T00:53:15.400Z,102300.41
2019-03-23T00:55:45.391Z,102301.95
2019-03-23T00:58:15.360Z,102304.75
2019-03-23T01:00:45.321Z,102301.95
2019-03-23T01:03:15.298Z,102298.07
2019-03-23T01:05:45.261Z,102297.52
2019-03-23T01:08:15.265Z,102293.28
2019-03-23T01:10:45.215Z,102284.73
2019-03-23T01:13:15.195Z,102298.70
2019-03-23T01:15:45.148Z,102295.81
2019-03-23T01:18:15.119Z,102297.94
2019-03-23T01:20:49.699Z,102293.97
2019-03-23T01:23:15.062Z,102276.88
2019-03-23T01:25:45.040Z,102278.33
2019-03-23T01:28:15.022Z,102291.39
2019-03-23T01:30:44.970Z,102287.72
2019-03-23T01:33:15.914Z,102286.13
2019-03-23T01:35:45.882Z,102287.59
2019-03-23T01:38:15.857Z,102280.66
2019-03-23T01:40:45.846Z,102277.36
2019-03-23T01:43:15.802Z,102263.19
2019-03-23T01:45:45.775Z,102273.64
2019-03-23T01:48:15.768Z,102271.52
2019-03-23T01:50:45.717Z,102277.42
2019-03-23T01:53:15.681Z,102268.80
2019-03-23T01:55:45.682Z,102275.39
2019-03-23T01:58:15.659Z,102276.65
2019-03-23T02:00:45.670Z,102274.42
2019-03-23T02:03:15.603Z,102277.32
2019-03-23T02:05:45.572Z,102277.03
2019-03-23T02:08:15.571Z,102284.30
2019-03-23T02:10:45.546Z,102285.06
2019-03-23T02:13:15.530Z,102283.52
2019-03-23T02:15:45.484Z,102285.84
2019-03-23T02:18:15.448Z,102286.33
2019-03-23T02:20:45.426Z,102283.90
2019-03-23T02:23:15.384Z,102282.68
2019-03-23T02:25:45.353Z,102287.20
2019-03-23T02:28:15.307Z,102283.05
2019-03-23T02:30:45.308Z,102282.50
2019-03-23T02:33:15.281Z,102280.33
2019-03-23T02:35:45.239Z,102270.20
2019-03-23T02:38:15.186Z,102272.59
2019-03-23T02:40:45.199Z,102274.33
2019-03-23T02:43:15.173Z,102275.28
2019-03-23T02:45:45.150Z,102284.55
2019-03-23T02:48:15.110Z,102277.13
2019-03-23T02:50:45.081Z,102279.02
2019-03-23T02:53:15.033Z,102282.31
2019-03-23T02:55:45.022Z,102276.25
2019-03-23T02:58:14.963Z,102281.20
2019-03-23T03:00:44.960Z,102276.25
2019-03-23T03:03:14.916Z,102267.65
2019-03-23T03:05:44.871Z,102273.43
2019-03-23T03:08:14.880Z,102276.72
2019-03-23T03:10:44.853Z,102277.44
2019-03-23T03:13:14.826Z,102276.79
2019-03-23T03:15:44.800Z,102274.46
2019-03-23T03:18:14.786Z,102281.70
2019-03-23T03:20:44.764Z,102276.52
2019-03-23T03:23:14.727Z,102280.77
2019-03-23T03:25:44.694Z,102279.92
2019-03-23T03:28:14.644Z,102286.41
2019-03-23T03:30:44.590Z,102283.01
2019-03-23T03:33:14.579Z,102273.25
2019-03-23T03:35:44.560Z,102278.58
2019-03-23T03:38:14.531Z,102289.29
2019-03-23T03:40:44.520Z,102285.72
2019-03-23T03:43:14.482Z,102286.50
2019-03-23T03:45:44.423Z,102288.52
2019-03-23T03:48:14.394Z,102290.22
2019-03-23T03:50:44.423Z,102289.80
2019-03-23T03:53:14.334Z,102305.04
2019-03-23T03:55:44.358Z,102307.83
2019-03-23T03:58:14.248Z,102308.70
2019-03-23T04:00:44.190Z,102310.63
2019-03-23T04:03:14.151Z,102306.66
2019-03-23T04:05:44.128Z,102313.80
2019-03-23T04:08:14.101Z,102309.92
2019-03-23T04:10:44.088Z,102306.27
2019-03-23T04:13:14.032Z,102306.05
2019-03-23T04:15:43.990Z,102304.86
2019-03-23T04:18:13.950Z,102306.52
2019-03-23T04:20:43.935Z,102315.01
2019-03-23T04:23:13.901Z,102312.70
2019-03-23T04:25:43.908Z,102317.81
2019-03-23T04:28:13.848Z,102321.88
2019-03-23T04:30:43.810Z,102327.09
2019-03-23T04:33:13.786Z,102330.84
2019-03-23T04:35:43.754Z,102331.91
2019-03-23T04:38:22.238Z,102326.80
2019-03-23T04:40:43.722Z,102332.00
2019-03-23T04:43:13.703Z,102334.80
2019-03-23T04:45:43.665Z,102332.95
2019-03-23T04:48:13.646Z,102339.63
2019-03-23T04:50:43.605Z,102349.58
2019-03-23T04:53:13.598Z,102356.82
2019-03-23T04:55:43.565Z,102357.96
2019-03-23T04:58:13.629Z,102359.62
2019-03-23T05:00:43.597Z,102363.11
2019-03-23T05:03:13.567Z,102367.64
2019-03-23T05:05:43.527Z,102372.81
2019-03-23T05:08:13.493Z,102377.72
2019-03-23T05:10:43.474Z,102391.59
2019-03-23T05:13:13.444Z,102390.98
2019-03-23T05:15:43.407Z,102391.86
2019-03-23T05:18:13.371Z,102391.86
2019-03-23T05:20:43.329Z,102398.20
2019-03-23T05:23:13.302Z,102397.09
2019-03-23T05:25:43.312Z,102398.26
2019-03-23T05:28:13.339Z,102399.12
2019-03-23T05:30:43.338Z,102399.61
2019-03-23T05:33:13.309Z,102403.94
2019-03-23T05:35:43.291Z,102400.84
2019-03-23T05:38:13.255Z,102410.31
2019-03-23T05:40:43.222Z,102409.74
2019-03-23T05:43:13.232Z,102408.50
2019-03-23T05:45:43.204Z,102415.37
2019-03-23T05:48:13.158Z,102409.37
2019-03-23T05:50:43.134Z,102402.97
2019-03-23T05:53:13.092Z,102408.12
2019-03-23T05:55:43.067Z,102414.58
2019-03-23T05:58:13.043Z,102409.08
2019-03-23T06:00:43.006Z,102403.08
2019-03-23T06:03:12.982Z,102395.14
2019-03-23T06:05:42.931Z,102402.59
2019-03-23T06:08:12.901Z,102392.94
2019-03-23T06:10:42.854Z,102402.02
2019-03-23T06:13:12.827Z,102406.66
2019-03-23T06:15:42.795Z,102404.13
2019-03-23T06:18:12.800Z,102403.19
2019-03-23T06:20:42.766Z,102404.25
2019-03-23T06:23:12.745Z,102415.48
2019-03-23T06:25:42.726Z,102404.16
2019-03-23T06:28:12.695Z,102412.20
2019-03-23T06:30:42.670Z,102410.36
2019-03-23T06:33:12.659Z,102411.91
2019-03-23T06:35:42.659Z,102411.11
2019-03-23T06:38:12.632Z,102402.13
2019-03-23T06:40:42.624Z,102403.36
2019-03-23T06:43:12.602Z,102404.90
2019-03-23T06:45:42.569Z,102395.28
2019-03-23T06:48:12.533Z,102407.38
2019-03-23T06:50:42.537Z,102403.70
2019-03-23T06:53:12.480Z,102399.64
2019-03-23T06:55:42.442Z,102408.25
2019-03-23T06:58:12.409Z,102412.61
2019-03-23T07:00:42.380Z,102413.58
2019-03-23T07:03:12.370Z,102409.89
2019-03-23T07:05:42.334Z,102407.48
2019-03-23T07:08:12.316Z,102401.96
2019-03-23T07:10:42.290Z,102409.87
2019-03-23T07:13:12.276Z,102406.16
2019-03-23T07:15:42.224Z,102414.42
2019-03-23T07:18:12.182Z,102419.25
2019-03-23T07:20:42.157Z,102420.22
2019-03-23T07:23:12.124Z,102424.29
2019-03-23T07:25:42.105Z,102424.77
2019-03-23T07:28:12.069Z,102422.98
2019-03-23T07:30:42.050Z,102434.81
2019-03-23T07:33:12.019Z,102435.91
2019-03-23T07:35:41.997Z,102430.00
2019-03-23T07:38:11.944Z,102428.64
2019-03-23T07:40:41.939Z,102432.20
2019-03-23T07:43:11.950Z,102433.20
2019-03-23T07:45:41.932Z,102432.55
2019-03-23T07:48:11.929Z,102431.23
2019-03-23T07:50:41.863Z,102432.92
2019-03-23T07:53:11.853Z,102429.25
2019-03-23T07:55:41.805Z,102440.53
2019-03-23T07:58:11.963Z,102446.77
2019-03-23T08:00:41.839Z,102447.60
2019-03-23T08:03:11.799Z,102452.02
2019-03-23T08:05:41.799Z,102448.91
2019-03-23T08:08:11.752Z,102458.41
2019-03-23T08:10:41.734Z,102465.15
2019-03-23T08:13:11.761Z,102463.84
2019-03-23T08:15:41.706Z,102469.16
2019-03-23T08:18:11.685Z,102469.36
2019-03-23T08:20:41.668Z,102473.28
2019-03-23T08:23:11.639Z,102469.11
2019-03-23T08:25:41.587Z,102478.91
2019-03-23T08:28:11.564Z,102479.66
2019-03-23T08:30:41.537Z,102475.54
2019-03-23T08:33:11.526Z,102474.37
2019-03-23T08:35:41.520Z,102477.87
2019-03-23T08:38:11.501Z,102485.66
2019-03-23T08:40:41.479Z,102488.22
2019-03-23T08:43:11.451Z,102488.02
2019-03-23T08:45:41.428Z,102491.98
2019-03-23T08:48:11.392Z,102488.09
2019-03-23T08:50:41.372Z,102490.64
2019-03-23T08:53:11.363Z,102497.20
2019-03-23T08:55:41.336Z,102497.76
2019-03-23T08:58:11.314Z,102491.45
2019-03-23T09:00:41.288Z,102494.69
2019-03-23T09:03:11.265Z,102495.19
2019-03-23T09:05:41.244Z,102497.63
2019-03-23T09:08:11.317Z,102498.57
2019-03-23T09:10:41.289Z,102502.09
2019-03-23T09:13:11.302Z,102498.98
2019-03-23T09:15:41.270Z,102501.22
2019-03-23T09:18:11.278Z,102504.50
2019-03-23T09:20:41.255Z,102507.91
2019-03-23T09:23:11.312Z,102507.22
2019-03-23T09:25:41.294Z,102508.02
2019-03-23T09:28:11.253Z,102511.78
2019-03-23T09:30:41.225Z,102515.61
2019-03-23T09:33:11.181Z,102518.30
2019-03-23T09:35:41.156Z,102519.69
2019-03-23T09:38:11.176Z,102513.30
2019-03-23T09:40:41.155Z,102512.39
2019-03-23T09:43:11.312Z,102514.37
2019-03-23T09:45:41.263Z,102511.52
2019-03-23T09:48:11.313Z,102511.05
2019-03-23T09:50:41.253Z,102518.72
2019-03-23T09:53:11.249Z,102523.95
2019-03-23T09:55:41.187Z,102525.09
2019-03-23T09:58:11.175Z,102526.45
2019-03-23T10:00:41.141Z,102522.56
2019-03-23T10:03:11.137Z,102512.41
2019-03-23T10:05:41.126Z,102516.77
2019-03-23T10:08:11.081Z,102507.45
2019-03-23T10:10:41.065Z,102515.80
2019-03-23T10:13:11.017Z,102517.61
2019-03-23T10:15:41.002Z,102521.91
2019-03-23T10:18:11.043Z,102515.60
2019-03-23T10:20:41.029Z,102518.00
2019-03-23T10:23:11.178Z,102519.80
2019-03-23T10:25:41.162Z,102525.84
2019-03-23T10:28:11.124Z,102523.27
2019-03-23T10:30:41.108Z,102529.59
2019-03-23T10:33:11.088Z,102527.63
2019-03-23T10:35:41.085Z,102527.73
2019-03-23T10:38:11.271Z,102524.59
2019-03-23T10:40:42.973Z,102528.37
2019-03-23T10:43:11.301Z,102521.69
2019-03-23T10:45:44.344Z,102521.42
2019-03-23T10:48:12.245Z,102524.94
2019-03-23T10:50:41.278Z,102523.16
2019-03-23T10:53:11.242Z,102524.18
2019-03-23T10:55:41.191Z,102527.52
2019-03-23T10:58:11.250Z,102526.41
2019-03-23T11:00:41.254Z,102529.02
2019-03-23T11:03:11.229Z,102526.06
2019-03-23T11:05:41.193Z,102523.34
2019-03-23T11:08:11.164Z,102520.14
2019-03-23T11:10:42.036Z,102526.77
2019-03-23T11:13:11.149Z,102525.17
2019-03-23T11:15:41.148Z,102521.56
2019-03-23T11:18:11.119Z,102531.73
2019-03-23T11:20:41.080Z,102536.93
2019-03-23T11:23:11.057Z,102530.86
2019-03-23T11:25:41.040Z,102533.33
2019-03-23T11:28:11.103Z,102536.56
2019-03-23T11:30:41.074Z,102533.35
2019-03-23T11:33:11.037Z,102536.08
2019-03-23T11:35:41.034Z,102536.59
2019-03-23T11:38:11.250Z,102543.78
2019-03-23T11:40:41.242Z,102546.75
2019-03-23T11:43:11.427Z,102547.12
2019-03-23T11:45:41.417Z,102549.09
2019-03-23T11:48:11.445Z,102549.61
2019-03-23T11:50:41.414Z,102554.94
2019-03-23T11:53:11.405Z,102554.42
2019-03-23T11:55:41.398Z,102552.58
2019-03-23T11:58:11.382Z,102558.52
2019-03-23T12:00:41.392Z,102553.56
2019-03-23T12:03:11.359Z,102550.84
2019-03-23T12:05:41.338Z,102552.83
2019-03-23T12:08:11.331Z,102560.39
2019-03-23T12:10:41.285Z,102560.88
2019-03-23T12:13:11.293Z,102562.48
2019-03-23T12:15:41.269Z,102564.48
2019-03-23T12:18:11.255Z,102558.66
2019-03-23T12:20:41.237Z,102562.62
2019-03-23T12:23:11.216Z,102557.02
2019-03-23T12:25:41.175Z,102561.84
2019-03-23T12:28:11.228Z,102564.58
2019-03-23T12:30:41.194Z,102568.22
2019-03-23T12:33:11.186Z,102564.95
2019-03-23T12:35:41.158Z,102566.20
2019-03-23T12:38:11.226Z,102566.67
2019-03-23T12:40:41.212Z,102571.27
2019-03-23T12:43:11.196Z,102577.50
2019-03-23T12:45:41.184Z,102575.13
2019-03-23T12:48:11.179Z,102571.79
2019-03-23T12:50:41.147Z,102579.35
2019-03-23T12:53:11.117Z,102575.63
2019-03-23T12:55:41.087Z,102574.62
2019-03-23T12:58:11.163Z,102573.14
2019-03-23T13:00:41.123Z,102567.81
2019-03-23T13:03:11.209Z,102572.50
2019-03-23T13:05:41.174Z,102570.13
2019-03-23T13:08:11.155Z,102559.09
2019-03-23T13:10:41.107Z,102571.15
2019-03-23T13:13:11.074Z,102579.35
2019-03-23T13:15:41.098Z,102575.66
2019-03-23T13:18:11.067Z,102578.87
2019-03-23T13:20:41.066Z,102583.84
2019-03-23T13:23:12.694Z,102575.52
2019-03-23T13:25:41.136Z,102580.98
2019-03-23T13:28:11.166Z,102578.98
2019-03-23T13:30:41.143Z,102587.43
2019-03-23T13:33:11.136Z,102579.49
2019-03-23T13:35:41.087Z,102581.59
2019-03-23T13:38:11.168Z,102580.88
2019-03-23T13:40:41.125Z,102572.94
2019-03-23T13:43:11.116Z,102577.75
2019-03-23T13:45:42.765Z,102578.73
2019-03-23T13:48:11.134Z,102584.20
2019-03-23T13:50:41.114Z,102583.82
2019-03-23T13:53:11.083Z,102588.28
2019-03-23T13:55:41.044Z,102586.36
2019-03-23T13:58:12.291Z,102587.23
2019-03-23T14:00:42.247Z,102592.51
2019-03-23T14:03:12.217Z,102591.59
2019-03-23T14:05:42.211Z,102588.77
2019-03-23T14:08:12.189Z,102598.46
2019-03-23T14:10:42.155Z,102597.31
2019-03-23T14:13:12.159Z,102586.30
2019-03-23T14:15:42.870Z,102590.89
2019-03-23T14:18:13.338Z,102589.37
2019-03-23T14:20:46.212Z,102584.09
2019-03-23T14:23:16.526Z,102586.14
2019-03-23T14:25:46.592Z,102586.07
2019-03-23T14:28:17.532Z,102577.66
2019-03-23T14:30:47.932Z,102575.05
2019-03-23T14:33:21.287Z,102586.89
2019-03-23T14:35:51.889Z,102589.29
2019-03-23T14:38:21.965Z,102589.05
2019-03-23T14:40:52.326Z,102585.33
2019-03-23T14:43:27.442Z,102586.20
2019-03-23T14:46:00.786Z,102579.97
2019-03-23T14:48:31.034Z,102579.14
2019-03-23T14:51:03.712Z,102588.17
2019-03-23T14:53:35.049Z,102586.57
2019-03-23T14:56:06.917Z,102586.92
2019-03-23T14:58:37.254Z,102586.69
2019-03-23T15:01:08.774Z,102588.80
2019-03-23T15:03:39.145Z,102584.69
2019-03-23T15:06:11.962Z,102589.26
2019-03-23T15:08:45.039Z,102591.01
2019-03-23T15:11:15.293Z,102595.98
2019-03-23T15:13:51.022Z,102590.62
2019-03-23T15:16:21.303Z,102594.11
2019-03-23T15:18:51.697Z,102598.81
2019-03-23T15:21:21.775Z,102586.05
2019-03-23T15:23:54.879Z,102597.59
2019-03-23T15:26:24.901Z,102603.07
2019-03-23T15:28:55.202Z,102600.11
2019-03-23T15:31:26.010Z,102586.69
2019-03-23T15:33:56.222Z,102598.10
2019-03-23T15:36:29.416Z,102598.70
2019-03-23T15:38:59.576Z,102604.67
2019-03-23T15:41:32.802Z,102600.78
2019-03-23T15:44:05.064Z,102603.66
2019-03-23T15:46:38.882Z,102609.52
2019-03-23T15:49:09.395Z,102613.32
2019-03-23T15:51:39.619Z,102605.22
2019-03-23T15:54:09.925Z,102607.34
2019-03-23T15:56:43.319Z,102605.65
2019-03-23T15:59:13.444Z,102604.40
2019-03-23T16:01:43.759Z,102608.55
2019-03-23T16:04:18.611Z,102615.09
2019-03-23T16:06:46.521Z,102616.41
2019-03-23T16:09:21.926Z,102613.90
2019-03-23T16:11:52.018Z,102616.72
2019-03-23T16:14:25.538Z,102613.77
2019-03-23T16:16:55.591Z,102609.26
2019-03-23T16:19:26.069Z,102614.27
2019-03-23T16:21:56.592Z,102617.16
2019-03-23T16:24:26.776Z,102621.14
2019-03-23T16:27:05.580Z,102613.58
2019-03-23T16:29:36.155Z,102611.23
2019-03-23T16:32:06.469Z,102615.69
2019-03-23T16:34:38.565Z,102615.03
2019-03-23T16:37:11.717Z,102612.16
2019-03-23T16:39:43.921Z,102617.38
2019-03-23T16:42:14.155Z,102606.92
2019-03-23T16:44:46.735Z,102615.94
2019-03-23T16:47:26.071Z,102612.79
2019-03-23T16:50:01.635Z,102613.17
2019-03-23T16:52:30.175Z,102606.61
2019-03-23T16:55:11.454Z,102605.47
2019-03-23T16:57:38.897Z,102610.63
2019-03-23T17:00:12.026Z,102605.30
2019-03-23T17:02:44.880Z,102614.11
2019-03-23T17:05:23.769Z,102605.92
2019-03-23T17:07:54.535Z,102605.95
2019-03-23T17:10:27.310Z,102607.72
2019-03-23T17:12:57.297Z,102611.26
2019-03-23T17:15:27.991Z,102606.94
2019-03-23T17:18:00.899Z,102610.69
2019-03-23T17:20:32.033Z,102599.87
2019-03-23T17:23:02.580Z,102607.14
2019-03-23T17:25:32.594Z,102604.89
2019-03-23T17:28:02.620Z,102605.87
2019-03-23T17:30:32.586Z,102609.47
2019-03-23T17:33:02.562Z,102613.34
2019-03-23T17:35:32.506Z,102603.70
2019-03-23T17:38:02.479Z,102612.52
2019-03-23T17:40:32.425Z,102612.19
2019-03-23T17:43:06.271Z,102613.50
2019-03-23T17:45:32.378Z,102612.50
2019-03-23T17:48:02.331Z,102617.38
2019-03-23T17:50:32.339Z,102615.23
2019-03-23T17:53:02.309Z,102616.63
2019-03-23T17:55:32.304Z,102611.97
2019-03-23T17:58:02.270Z,102614.02
2019-03-23T18:00:32.245Z,102619.31
2019-03-23T18:03:02.231Z,102618.58
2019-03-23T18:05:32.185Z,102626.56
2019-03-23T18:08:02.167Z,102629.20
2019-03-23T18:10:32.121Z,102634.85
2019-03-23T18:13:02.123Z,102640.30
2019-03-23T18:15:32.080Z,102642.12
2019-03-23T18:18:02.026Z,102640.88
2019-03-23T18:20:32.005Z,102646.02
2019-03-23T18:23:01.974Z,102650.11
2019-03-23T18:25:31.933Z,102652.62
2019-03-23T18:28:01.933Z,102649.61
2019-03-23T18:30:48.821Z,102656.96
2019-03-23T18:33:18.794Z,102656.96
2019-03-23T18:35:48.789Z,102664.97
2019-03-23T18:38:18.762Z,102665.14
2019-03-23T18:40:48.696Z,102671.43
2019-03-23T18:43:27.063Z,102667.94
2019-03-23T18:45:48.647Z,102682.93
2019-03-23T18:48:18.608Z,102684.75
2019-03-23T18:50:48.558Z,102687.14
2019-03-23T18:53:18.528Z,102684.02
2019-03-23T18:55:48.475Z,102684.60
2019-03-23T18:58:18.426Z,102687.70
2019-03-23T19:00:48.391Z,102685.03
2019-03-23T19:03:18.357Z,102695.42
2019-03-23T19:05:48.303Z,102698.94
2019-03-23T19:08:18.258Z,102702.27
2019-03-23T19:10:48.214Z,102702.88
2019-03-23T19:13:18.184Z,102697.12
2019-03-23T19:15:48.127Z,102699.23
2019-03-23T19:18:18.098Z,102707.69
2019-03-23T19:20:48.070Z,102709.75
2019-03-23T19:23:18.017Z,102705.34
2019-03-23T19:25:47.992Z,102707.27
2019-03-23T19:28:17.953Z,102713.99
2019-03-23T19:30:47.910Z,102710.02
2019-03-23T19:33:17.843Z,102715.52
2019-03-23T19:35:47.832Z,102715.23
2019-03-23T19:38:18.263Z,102716.31
2019-03-23T19:40:47.772Z,102710.80
2019-03-23T19:43:17.721Z,102712.37
2019-03-23T19:45:47.689Z,102722.50
2019-03-23T19:48:17.664Z,102718.66
2019-03-23T19:50:47.619Z,102706.92
2019-03-23T19:53:17.559Z,102709.91
2019-03-23T19:55:47.502Z,102696.37
2019-03-23T19:58:17.469Z,102707.58
2019-03-23T20:00:47.459Z,102700.58
2019-03-23T20:03:19.178Z,102704.27
2019-03-23T20:05:47.438Z,102712.72
2019-03-23T20:08:17.379Z,102711.07
2019-03-23T20:10:47.330Z,102709.95
2019-03-23T20:13:17.301Z,102717.67
2019-03-23T20:15:47.268Z,102720.64
2019-03-23T20:18:17.241Z,102723.97
2019-03-23T20:20:47.185Z,102719.84
2019-03-23T20:23:17.170Z,102720.95
2019-03-23T20:25:47.122Z,102713.17
2019-03-23T20:28:17.089Z,102715.88
2019-03-23T20:30:47.082Z,102719.13
2019-03-23T20:33:19.679Z,102712.19
2019-03-23T20:35:47.039Z,102716.57
2019-03-23T20:38:17.014Z,102712.67
2019-03-23T20:40:46.996Z,102707.92
2019-03-23T20:43:17.011Z,102700.08
2019-03-23T20:45:46.963Z,102696.75
2019-03-23T20:48:16.910Z,102702.76
2019-03-23T20:50:46.896Z,102697.52
2019-03-23T20:53:17.076Z,102699.78
2019-03-23T20:55:47.037Z,102697.52
2019-03-23T20:58:16.983Z,102694.05
2019-03-23T21:00:46.938Z,102693.94
2019-03-23T21:03:16.906Z,102696.39
2019-03-23T21:05:46.918Z,102691.70
2019-03-23T21:08:16.875Z,102693.00
2019-03-23T21:10:46.852Z,102686.61
2019-03-23T21:13:16.808Z,102688.69
2019-03-23T21:15:46.739Z,102690.20
2019-03-23T21:18:16.712Z,102689.71
2019-03-23T21:20:46.666Z,102689.56
2019-03-23T21:23:16.634Z,102687.81
2019-03-23T21:25:46.605Z,102675.08
2019-03-23T21:28:16.552Z,102682.52
2019-03-23T21:30:46.516Z,102683.54
2019-03-23T21:33:16.449Z,102688.14
2019-03-23T21:35:46.422Z,102694.52
2019-03-23T21:38:16.379Z,102689.88
2019-03-23T21:40:46.342Z,102681.30
2019-03-23T21:43:16.285Z,102688.56
2019-03-23T21:45:46.276Z,102694.36
2019-03-23T21:48:16.256Z,102691.03
2019-03-23T21:50:47.689Z,102685.64
2019-03-23T21:53:16.216Z,102687.46
2019-03-23T21:55:46.180Z,102681.26
2019-03-23T21:58:16.146Z,102689.62
2019-03-23T22:00:46.097Z,102690.75
2019-03-23T22:03:16.053Z,102691.36
2019-03-23T22:05:46.025Z,102695.91
2019-03-23T22:08:15.973Z,102690.69
2019-03-23T22:10:45.933Z,102691.91
2019-03-23T22:13:15.918Z,102686.91
2019-03-23T22:15:45.895Z,102687.05
2019-03-23T22:18:15.850Z,102686.01
2019-03-23T22:20:45.818Z,102687.48
2019-03-23T22:23:15.797Z,102680.17
2019-03-23T22:25:45.760Z,102671.68
2019-03-23T22:28:15.844Z,102673.16
2019-03-23T22:30:45.792Z,102677.08
2019-03-23T22:33:15.741Z,102678.08
2019-03-23T22:35:45.702Z,102673.19
2019-03-23T22:38:15.659Z,102681.97
2019-03-23T22:40:45.628Z,102673.08
2019-03-23T22:43:15.623Z,102669.33
2019-03-23T22:45:45.582Z,102670.63
2019-03-23T22:48:15.546Z,102661.53
2019-03-23T22:50:45.497Z,102659.31
2019-03-23T22:53:15.439Z,102664.92
2019-03-23T22:55:45.409Z,102659.19
2019-03-23T22:58:15.355Z,102649.64
2019-03-23T23:00:46.260Z,102650.17
2019-03-23T23:03:16.218Z,102653.97
2019-03-23T23:05:46.179Z,102649.42
2019-03-23T23:08:16.146Z,102649.99
2019-03-23T23:10:46.104Z,102648.42
2019-03-23T23:13:16.066Z,102649.17
2019-03-23T23:15:46.041Z,102647.77
2019-03-23T23:18:15.985Z,102650.30
2019-03-23T23:20:45.968Z,102650.05
2019-03-23T23:23:15.904Z,102648.41
2019-03-23T23:25:45.861Z,102657.16
2019-03-23T23:28:15.834Z,102660.09
2019-03-23T23:30:45.792Z,102653.22
2019-03-23T23:33:15.754Z,102663.52
2019-03-23T23:35:45.725Z,102655.03
2019-03-23T23:38:15.688Z,102656.73
2019-03-23T23:40:45.635Z,102649.95
2019-03-23T23:43:15.609Z,102652.17
2019-03-23T23:45:45.590Z,102651.35
2019-03-23T23:48:15.573Z,102657.58
2019-03-23T23:50:45.518Z,102657.23
2019-03-23T23:53:15.496Z,102643.52
2019-03-23T23:55:45.444Z,102654.09
2019-03-23T23:58:15.400Z,102655.70
